Terminal Aerodrome Forecast
Issued by NWS Tampa Bay Area, FL

Home | Current Version | Previous Version | Text Only | Print | Product List | Glossary On
Versions: 1 2 3 4 5 6 7 8 9 10 11 12
000
FTUS42 KTBW 200500
TAFFMY
TAF
KFMY 200520Z 2006/2106 VRB03KT P6SM SCT250
     FM201600 31007KT P6SM VCTS SCT040CB SCT150
     FM210100 VRB03KT P6SM FEW050 FEW250=

USA.gov is the U.S. government's official web portal to all federal, state and local government web resources and services.